createdAt,value
2022-10-31T00:01:14.757Z,12.60
2022-10-31T00:03:43.322Z,12.60
2022-10-31T00:06:12.103Z,12.50
2022-10-31T00:08:40.801Z,12.50
2022-10-31T00:11:12.364Z,12.50
2022-10-31T00:13:41.020Z,12.50
2022-10-31T00:16:16.310Z,12.50
2022-10-31T00:18:45.017Z,12.50
2022-10-31T00:21:13.506Z,12.50
2022-10-31T00:23:41.998Z,12.50
2022-10-31T00:26:12.213Z,12.50
2022-10-31T00:28:40.703Z,12.60
2022-10-31T00:31:11.363Z,12.60
2022-10-31T00:33:41.482Z,12.60
2022-10-31T00:36:14.433Z,12.60
2022-10-31T00:38:43.195Z,12.60
2022-10-31T00:41:13.808Z,12.60
2022-10-31T00:43:43.750Z,12.60
2022-10-31T00:46:12.379Z,12.60
2022-10-31T00:48:40.899Z,12.60
2022-10-31T00:51:10.361Z,12.60
2022-10-31T00:53:38.977Z,12.60
2022-10-31T00:56:08.541Z,12.60
2022-10-31T00:58:38.697Z,12.60
2022-10-31T01:01:07.828Z,12.60
2022-10-31T01:03:39.515Z,12.60
2022-10-31T01:06:14.611Z,12.60
2022-10-31T01:08:43.336Z,12.60
2022-10-31T01:11:16.732Z,12.60
2022-10-31T01:13:47.113Z,12.60
2022-10-31T01:16:17.383Z,12.60
2022-10-31T01:18:46.348Z,12.60
2022-10-31T01:21:17.277Z,12.50
2022-10-31T01:23:45.963Z,12.50
2022-10-31T01:26:17.804Z,12.50
2022-10-31T01:28:49.748Z,12.50
2022-10-31T01:31:19.464Z,12.50
2022-10-31T01:33:48.224Z,12.40
2022-10-31T01:36:20.875Z,12.40
2022-10-31T01:38:54.103Z,12.40
2022-10-31T01:41:26.141Z,12.40
2022-10-31T01:43:58.275Z,12.40
2022-10-31T01:46:32.980Z,12.40
2022-10-31T01:49:04.823Z,12.30
2022-10-31T01:51:38.538Z,12.30
2022-10-31T01:54:12.841Z,12.30
2022-10-31T01:56:44.546Z,12.30
2022-10-31T01:59:19.914Z,12.30
2022-10-31T02:01:49.770Z,12.30
2022-10-31T02:04:20.783Z,12.20
2022-10-31T02:06:54.747Z,12.20
2022-10-31T02:09:24.848Z,12.20
2022-10-31T02:11:54.092Z,12.20
2022-10-31T02:14:25.614Z,12.20
2022-10-31T02:16:55.478Z,12.20
2022-10-31T02:19:30.429Z,12.20
2022-10-31T02:22:07.712Z,12.20
2022-10-31T02:25:00.099Z,12.20
2022-10-31T02:27:43.800Z,12.20
2022-10-31T02:30:18.003Z,12.20
2022-10-31T02:33:00.550Z,12.20
2022-10-31T02:35:42.802Z,12.20
2022-10-31T02:38:25.119Z,12.20
2022-10-31T02:41:01.782Z,12.20
2022-10-31T02:44:03.157Z,12.20
2022-10-31T02:46:36.936Z,12.20
2022-10-31T02:49:16.586Z,12.20
2022-10-31T02:51:45.840Z,12.20
2022-10-31T02:54:23.873Z,12.20
2022-10-31T02:56:59.836Z,12.20
2022-10-31T02:59:31.702Z,12.20
2022-10-31T03:02:11.135Z,12.10
2022-10-31T03:05:15.011Z,12.10
2022-10-31T03:07:52.938Z,12.10
2022-10-31T03:10:33.495Z,12.10
2022-10-31T03:13:08.763Z,12.10
2022-10-31T03:15:40.923Z,12.10
2022-10-31T03:18:12.715Z,12.10
2022-10-31T03:20:47.785Z,12.10
2022-10-31T03:23:18.111Z,12.10
2022-10-31T03:25:54.824Z,12.20
2022-10-31T03:28:32.640Z,12.10
2022-10-31T03:31:04.863Z,12.10
2022-10-31T03:33:41.379Z,12.10
2022-10-31T03:36:13.835Z,12.10
2022-10-31T03:38:44.426Z,12.20
2022-10-31T03:41:17.084Z,12.10
2022-10-31T03:43:54.914Z,12.10
2022-10-31T03:46:26.478Z,12.10
2022-10-31T03:48:58.432Z,12.20
2022-10-31T03:51:35.241Z,12.10
2022-10-31T03:54:11.508Z,12.10
2022-10-31T03:56:51.769Z,12.10
2022-10-31T03:59:25.171Z,12.10
2022-10-31T04:01:59.878Z,12.10
2022-10-31T04:04:31.052Z,12.10
2022-10-31T04:07:03.583Z,12.10
2022-10-31T04:09:35.617Z,12.00
2022-10-31T04:12:09.445Z,12.10
2022-10-31T04:14:57.347Z,12.00
2022-10-31T04:17:31.724Z,12.00
2022-10-31T04:20:02.045Z,12.00
2022-10-31T04:22:32.683Z,12.00
2022-10-31T04:25:01.954Z,12.00
2022-10-31T04:27:30.430Z,11.90
2022-10-31T04:30:00.404Z,11.90
2022-10-31T04:32:29.939Z,11.90
2022-10-31T04:34:58.486Z,11.90
2022-10-31T04:37:27.020Z,11.90
2022-10-31T04:39:57.535Z,11.80
2022-10-31T04:42:44.728Z,11.80
2022-10-31T04:45:16.822Z,11.80
2022-10-31T04:47:50.602Z,11.80
2022-10-31T04:50:19.261Z,11.80
2022-10-31T04:52:48.400Z,11.80
2022-10-31T04:55:21.631Z,11.80
2022-10-31T05:00:46.435Z,11.70
2022-10-31T05:03:16.250Z,11.70
2022-10-31T05:05:45.141Z,11.70
2022-10-31T05:08:15.467Z,11.60
2022-10-31T05:10:45.319Z,11.60
2022-10-31T05:13:15.653Z,11.60
2022-10-31T05:16:02.402Z,11.60
2022-10-31T05:18:49.020Z,11.60
2022-10-31T05:21:17.507Z,11.60
2022-10-31T05:23:59.508Z,11.60
2022-10-31T05:26:29.458Z,11.60
2022-10-31T05:28:58.363Z,11.60
2022-10-31T05:31:26.851Z,11.50
2022-10-31T05:33:56.068Z,11.50
2022-10-31T05:36:43.025Z,11.50
2022-10-31T05:39:14.756Z,11.50
2022-10-31T05:41:50.968Z,11.40
2022-10-31T05:44:24.899Z,11.40
2022-10-31T05:47:09.813Z,11.40
2022-10-31T05:49:56.795Z,11.40
2022-10-31T05:52:45.570Z,11.40
2022-10-31T05:55:36.686Z,11.40
2022-10-31T05:58:11.859Z,11.30
2022-10-31T06:00:42.925Z,11.30
2022-10-31T06:03:12.819Z,11.40
2022-10-31T06:06:00.069Z,11.40
2022-10-31T06:08:34.768Z,11.40
2022-10-31T06:11:07.244Z,11.40
2022-10-31T06:13:57.344Z,11.30
2022-10-31T06:16:32.363Z,11.30
2022-10-31T06:19:10.876Z,11.30
2022-10-31T06:21:39.434Z,11.30
2022-10-31T06:24:08.154Z,11.30
2022-10-31T06:26:59.967Z,11.30
2022-10-31T06:29:29.863Z,11.30
2022-10-31T06:32:12.261Z,11.30
2022-10-31T06:34:44.967Z,11.20
2022-10-31T06:37:14.420Z,11.20
2022-10-31T06:39:46.077Z,11.20
2022-10-31T06:42:18.027Z,11.20
2022-10-31T06:44:47.912Z,11.30
2022-10-31T06:47:28.135Z,11.20
2022-10-31T06:50:12.054Z,11.20
2022-10-31T06:52:40.906Z,11.30
2022-10-31T06:55:10.619Z,11.30
2022-10-31T06:57:39.150Z,11.30
2022-10-31T07:00:10.828Z,11.30
2022-10-31T07:02:54.241Z,11.30
2022-10-31T07:05:25.720Z,11.40
2022-10-31T07:07:55.699Z,11.40
2022-10-31T07:10:25.519Z,11.40
2022-10-31T07:13:02.247Z,11.50
2022-10-31T07:15:38.009Z,11.50
2022-10-31T07:18:09.883Z,11.50
2022-10-31T07:20:38.668Z,11.50
2022-10-31T07:23:07.346Z,11.50
2022-10-31T07:25:35.856Z,11.50
2022-10-31T07:28:21.051Z,11.60
2022-10-31T07:30:54.708Z,11.60
2022-10-31T07:33:24.722Z,11.60
2022-10-31T07:36:11.870Z,11.60
2022-10-31T07:38:43.676Z,11.60
2022-10-31T07:41:12.212Z,11.70
2022-10-31T07:43:44.741Z,11.70
2022-10-31T07:46:20.539Z,11.70
2022-10-31T07:49:07.966Z,11.80
2022-10-31T07:51:55.275Z,11.80
2022-10-31T07:54:26.701Z,11.90
2022-10-31T07:56:56.096Z,11.90
2022-10-31T07:59:26.750Z,12.00
2022-10-31T08:01:57.478Z,12.10
2022-10-31T08:04:37.826Z,12.00
2022-10-31T08:07:25.226Z,12.10
2022-10-31T08:10:00.806Z,12.10
2022-10-31T08:12:32.828Z,12.10
2022-10-31T08:15:01.478Z,12.20
2022-10-31T08:17:31.667Z,12.20
2022-10-31T08:20:02.298Z,12.20
2022-10-31T08:22:37.624Z,12.30
2022-10-31T08:25:10.423Z,12.30
2022-10-31T08:27:39.250Z,12.30
2022-10-31T08:30:09.096Z,12.40
2022-10-31T08:32:41.805Z,12.40
2022-10-31T08:35:30.585Z,12.50
2022-10-31T08:38:18.098Z,12.50
2022-10-31T08:40:50.605Z,12.50
2022-10-31T08:43:20.099Z,12.50
2022-10-31T08:45:51.497Z,12.60
2022-10-31T08:48:30.270Z,12.60
2022-10-31T08:50:59.986Z,12.60
2022-10-31T08:53:30.079Z,12.70
2022-10-31T08:56:24.241Z,12.70
2022-10-31T08:58:54.440Z,12.80
2022-10-31T09:01:32.195Z,12.80
2022-10-31T09:04:02.167Z,12.90
2022-10-31T09:06:30.807Z,12.90
2022-10-31T09:09:02.085Z,13.00
2022-10-31T09:11:32.524Z,13.00
2022-10-31T09:14:13.203Z,13.10
2022-10-31T09:17:04.917Z,13.20
2022-10-31T09:19:51.788Z,13.30
2022-10-31T09:22:20.335Z,13.40
2022-10-31T09:24:48.935Z,13.50
2022-10-31T09:27:17.560Z,13.50
2022-10-31T09:29:49.247Z,13.60
2022-10-31T09:32:19.367Z,13.60
2022-10-31T09:34:48.829Z,13.70
2022-10-31T09:37:23.148Z,13.70
2022-10-31T09:39:53.440Z,13.80
2022-10-31T09:42:53.483Z,13.90
2022-10-31T09:45:31.450Z,14.00
2022-10-31T09:48:27.955Z,14.10
2022-10-31T09:51:12.152Z,14.20
2022-10-31T09:53:53.188Z,14.20
2022-10-31T09:56:25.375Z,14.30
2022-10-31T09:59:01.459Z,14.30
2022-10-31T10:01:40.240Z,14.30
2022-10-31T10:04:30.512Z,14.40
2022-10-31T10:07:16.152Z,14.40
2022-10-31T10:09:49.033Z,14.50
2022-10-31T10:13:02.206Z,14.50
2022-10-31T10:15:44.326Z,14.50
2022-10-31T10:18:22.512Z,14.50
2022-10-31T10:21:04.737Z,14.60
2022-10-31T10:23:53.687Z,14.60
2022-10-31T10:26:27.378Z,14.60
2022-10-31T10:29:00.351Z,14.60
2022-10-31T10:31:34.551Z,14.60
2022-10-31T10:34:09.226Z,14.60
2022-10-31T10:36:44.715Z,14.60
2022-10-31T10:39:19.407Z,14.80
2022-10-31T10:42:04.823Z,14.80
2022-10-31T10:44:50.688Z,14.80
2022-10-31T10:47:37.249Z,14.90
2022-10-31T10:50:12.193Z,15.00
2022-10-31T10:52:50.950Z,15.00
2022-10-31T10:55:30.042Z,15.10
2022-10-31T10:58:04.423Z,15.10
2022-10-31T11:00:37.144Z,15.20
2022-10-31T11:03:06.647Z,15.30
2022-10-31T11:05:40.808Z,15.30
2022-10-31T11:08:09.668Z,15.40
2022-10-31T11:10:38.432Z,15.50
2022-10-31T11:13:24.341Z,15.60
2022-10-31T11:15:57.530Z,15.60
2022-10-31T11:18:28.490Z,15.70
2022-10-31T11:20:59.439Z,15.70
2022-10-31T11:23:29.748Z,15.80
2022-10-31T11:25:59.769Z,15.90
2022-10-31T11:28:31.294Z,15.90
2022-10-31T11:31:01.461Z,16.00
2022-10-31T11:33:33.396Z,16.10
2022-10-31T11:36:03.840Z,16.20
2022-10-31T11:38:36.980Z,16.30
2022-10-31T11:41:13.494Z,16.40
2022-10-31T11:43:55.501Z,16.40
2022-10-31T11:46:28.099Z,16.50
2022-10-31T11:48:57.953Z,16.60
2022-10-31T11:51:30.307Z,16.60
2022-10-31T11:54:03.236Z,16.60
2022-10-31T11:56:40.971Z,16.60
2022-10-31T11:59:23.063Z,16.70
2022-10-31T12:01:53.935Z,16.80
2022-10-31T12:04:32.339Z,16.80
2022-10-31T12:07:01.192Z,16.90
2022-10-31T12:09:31.342Z,16.90
2022-10-31T12:12:29.264Z,16.90
2022-10-31T12:15:14.017Z,16.80
2022-10-31T12:17:47.626Z,16.90
2022-10-31T12:20:26.660Z,17.00
2022-10-31T12:23:04.548Z,17.10
2022-10-31T12:25:42.369Z,17.10
2022-10-31T12:28:34.375Z,17.10
2022-10-31T12:31:28.441Z,17.10
2022-10-31T12:34:09.966Z,17.20
2022-10-31T12:36:50.124Z,17.20
2022-10-31T12:39:27.287Z,17.20
2022-10-31T12:42:04.962Z,17.30
2022-10-31T12:45:01.020Z,17.30
2022-10-31T12:47:46.877Z,17.30
2022-10-31T12:50:30.914Z,17.30
2022-10-31T12:53:14.875Z,17.40
2022-10-31T12:55:52.642Z,17.30
2022-10-31T12:58:25.951Z,17.40
2022-10-31T13:01:05.266Z,17.30
2022-10-31T13:03:41.318Z,17.30
2022-10-31T13:06:15.109Z,17.30
2022-10-31T13:08:48.504Z,17.30
2022-10-31T13:11:19.999Z,17.30
2022-10-31T13:13:58.266Z,17.30
2022-10-31T13:16:30.761Z,17.30
2022-10-31T13:19:05.804Z,17.30
2022-10-31T13:21:40.130Z,17.30
2022-10-31T13:24:15.336Z,17.30
2022-10-31T13:26:48.563Z,17.40
2022-10-31T13:29:26.903Z,17.40
2022-10-31T13:31:58.666Z,17.40
2022-10-31T13:34:33.401Z,17.40
2022-10-31T13:37:08.311Z,17.40
2022-10-31T13:39:48.832Z,17.40
2022-10-31T13:42:23.103Z,17.40
2022-10-31T13:44:52.153Z,17.40
2022-10-31T13:47:27.922Z,17.40
2022-10-31T13:50:20.254Z,17.40
2022-10-31T13:52:49.260Z,17.40
2022-10-31T13:55:37.801Z,17.40
2022-10-31T13:58:21.384Z,17.40
2022-10-31T14:01:08.176Z,17.40
2022-10-31T14:04:04.763Z,17.40
2022-10-31T14:06:40.924Z,17.40
2022-10-31T14:09:29.885Z,17.50
2022-10-31T14:12:01.088Z,17.40
2022-10-31T14:14:41.696Z,17.30
2022-10-31T14:17:20.611Z,17.30
2022-10-31T14:20:04.894Z,17.30
2022-10-31T14:22:38.681Z,17.40
2022-10-31T14:25:29.800Z,17.40
2022-10-31T14:27:59.945Z,17.40
2022-10-31T14:30:30.763Z,17.50
2022-10-31T14:33:02.308Z,17.50
2022-10-31T14:35:48.673Z,17.50
2022-10-31T14:38:30.459Z,17.50
2022-10-31T14:41:30.789Z,17.50
2022-10-31T14:44:31.430Z,17.50
2022-10-31T14:47:10.940Z,17.40
2022-10-31T14:50:04.584Z,17.40
2022-10-31T14:52:34.345Z,17.40
2022-10-31T14:55:09.250Z,17.40
2022-10-31T14:57:40.796Z,17.50
2022-10-31T15:00:17.219Z,17.50
2022-10-31T15:02:56.078Z,17.50
2022-10-31T15:05:25.434Z,17.50
2022-10-31T15:07:54.889Z,17.50
2022-10-31T15:10:27.256Z,17.60
2022-10-31T15:12:55.884Z,17.60
2022-10-31T15:15:27.589Z,17.60
2022-10-31T15:17:59.342Z,17.60
2022-10-31T15:20:30.289Z,17.60
2022-10-31T15:23:00.159Z,17.60
2022-10-31T15:25:35.583Z,17.50
2022-10-31T15:28:15.754Z,17.60
2022-10-31T15:30:53.345Z,17.60
2022-10-31T15:33:24.850Z,17.60
2022-10-31T15:36:01.157Z,17.50
2022-10-31T15:38:31.139Z,17.50
2022-10-31T15:41:05.141Z,17.50
2022-10-31T15:43:37.791Z,17.50
2022-10-31T15:46:11.153Z,17.50
2022-10-31T15:48:41.570Z,17.50
2022-10-31T15:51:10.133Z,17.40
2022-10-31T15:53:45.464Z,17.40
2022-10-31T15:56:21.232Z,17.40
2022-10-31T15:58:52.436Z,17.40
2022-10-31T16:01:24.009Z,17.30
2022-10-31T16:04:04.685Z,17.30
2022-10-31T16:06:34.977Z,17.20
2022-10-31T16:09:04.889Z,17.20
2022-10-31T16:11:38.012Z,17.10
2022-10-31T16:14:09.639Z,17.10
2022-10-31T16:16:43.722Z,17.00
2022-10-31T16:19:20.715Z,17.00
2022-10-31T16:21:52.203Z,16.90
2022-10-31T16:24:27.139Z,16.90
2022-10-31T16:27:03.181Z,16.80
2022-10-31T16:29:36.349Z,16.70
2022-10-31T16:32:05.579Z,16.70
2022-10-31T16:34:34.083Z,16.70
2022-10-31T16:37:04.355Z,16.70
2022-10-31T16:39:32.916Z,16.80
2022-10-31T16:42:02.892Z,16.70
2022-10-31T16:44:31.531Z,16.70
2022-10-31T16:47:11.748Z,16.70
2022-10-31T16:49:40.256Z,16.70
2022-10-31T16:52:08.907Z,16.70
2022-10-31T16:54:37.490Z,16.70
2022-10-31T16:57:08.590Z,16.60
2022-10-31T16:59:37.299Z,16.70
2022-10-31T17:02:06.229Z,16.70
2022-10-31T17:07:08.423Z,16.60
2022-10-31T17:09:37.282Z,16.50
2022-10-31T17:12:08.860Z,16.50
2022-10-31T17:14:40.419Z,16.50
2022-10-31T17:17:09.704Z,16.50
2022-10-31T17:19:38.500Z,16.50
2022-10-31T17:22:07.039Z,16.50
2022-10-31T17:24:35.539Z,16.40
2022-10-31T17:27:04.174Z,16.50
2022-10-31T17:29:35.220Z,16.50
2022-10-31T17:32:04.729Z,16.40
2022-10-31T17:34:33.507Z,16.40
2022-10-31T17:37:01.964Z,16.40
2022-10-31T17:39:30.523Z,16.40
2022-10-31T17:41:59.131Z,16.30
2022-10-31T17:44:27.772Z,16.30
2022-10-31T17:46:57.605Z,16.30
2022-10-31T17:49:26.194Z,16.20
2022-10-31T17:51:54.958Z,16.10
2022-10-31T17:54:23.625Z,16.10
2022-10-31T17:56:52.876Z,16.00
2022-10-31T17:59:21.439Z,15.90
2022-10-31T18:01:50.084Z,15.90
2022-10-31T18:04:20.194Z,15.90
2022-10-31T18:06:49.826Z,15.90
2022-10-31T18:09:18.544Z,15.90
2022-10-31T18:11:47.279Z,15.90
2022-10-31T18:14:15.965Z,15.90
2022-10-31T18:16:45.015Z,15.90
2022-10-31T18:19:16.074Z,15.90
2022-10-31T18:21:46.737Z,15.90
2022-10-31T18:24:15.415Z,15.90
2022-10-31T18:26:43.939Z,15.90
2022-10-31T18:29:12.929Z,15.90
2022-10-31T18:31:41.548Z,15.90
2022-10-31T18:34:10.223Z,16.00
2022-10-31T18:36:38.768Z,15.90
2022-10-31T18:39:08.711Z,16.00
2022-10-31T18:41:38.259Z,16.00
2022-10-31T18:44:07.008Z,16.00
2022-10-31T18:46:36.376Z,16.00
2022-10-31T18:49:06.187Z,16.00
2022-10-31T18:51:34.815Z,16.10
2022-10-31T18:54:03.617Z,16.10
2022-10-31T18:56:33.458Z,16.10
2022-10-31T18:59:03.181Z,16.10
2022-10-31T19:01:32.172Z,16.10
2022-10-31T19:04:03.756Z,16.20
2022-10-31T19:06:32.275Z,16.10
2022-10-31T19:09:02.821Z,16.20
2022-10-31T19:11:34.680Z,16.20
2022-10-31T19:14:03.655Z,16.30
2022-10-31T19:16:32.573Z,16.20
2022-10-31T19:19:01.490Z,16.20
2022-10-31T19:21:32.256Z,16.20
2022-10-31T19:24:01.365Z,16.20
2022-10-31T19:26:30.237Z,16.20
2022-10-31T19:29:00.133Z,16.20
2022-10-31T19:31:28.792Z,16.20
2022-10-31T19:33:57.455Z,16.10
2022-10-31T19:36:26.731Z,16.20
2022-10-31T19:38:55.314Z,16.20
2022-10-31T19:41:26.911Z,16.10
2022-10-31T19:43:56.226Z,16.20
2022-10-31T19:46:52.736Z,16.10
2022-10-31T19:49:14.908Z,16.20
2022-10-31T19:51:43.372Z,16.10
2022-10-31T19:54:12.652Z,16.10
2022-10-31T19:56:41.200Z,16.10
2022-10-31T19:59:09.776Z,16.10
2022-10-31T20:01:39.738Z,16.00
2022-10-31T20:04:08.397Z,15.90
2022-10-31T20:06:39.282Z,15.90
2022-10-31T20:09:09.919Z,15.80
2022-10-31T20:11:39.459Z,15.70
2022-10-31T20:14:09.310Z,15.70
2022-10-31T20:16:39.679Z,15.70
2022-10-31T20:19:08.508Z,15.60
2022-10-31T20:21:39.022Z,15.60
2022-10-31T20:24:09.845Z,15.50
2022-10-31T20:26:40.656Z,15.50
2022-10-31T20:29:13.158Z,15.50
2022-10-31T20:31:44.012Z,15.50
2022-10-31T20:34:12.644Z,15.50
2022-10-31T20:36:41.230Z,15.50
2022-10-31T20:39:10.902Z,15.50
2022-10-31T20:41:39.995Z,15.50
2022-10-31T20:44:09.972Z,15.40
2022-10-31T20:46:38.602Z,15.40
2022-10-31T20:49:08.473Z,15.30
2022-10-31T20:51:37.223Z,15.30
2022-10-31T20:54:06.787Z,15.20
2022-10-31T20:56:35.506Z,15.10
2022-10-31T20:59:04.182Z,15.10
2022-10-31T21:01:35.894Z,15.00
2022-10-31T21:04:06.238Z,15.00
2022-10-31T21:06:36.209Z,14.90
2022-10-31T21:09:06.073Z,14.80
2022-10-31T21:11:34.739Z,14.80
2022-10-31T21:14:03.405Z,14.70
2022-10-31T21:16:36.185Z,14.60
2022-10-31T21:19:05.708Z,14.60
2022-10-31T21:21:37.887Z,14.50
2022-10-31T21:24:09.513Z,14.50
2022-10-31T21:26:40.739Z,14.40
2022-10-31T21:29:10.304Z,14.40
2022-10-31T21:31:39.567Z,14.40
2022-10-31T21:34:08.450Z,14.30
2022-10-31T21:36:38.569Z,14.40
2022-10-31T21:39:08.483Z,14.30
2022-10-31T21:41:37.495Z,14.30
2022-10-31T21:44:06.483Z,14.40
2022-10-31T21:46:35.282Z,14.30
2022-10-31T21:49:04.441Z,14.40
2022-10-31T21:51:36.027Z,14.40
2022-10-31T21:54:26.209Z,14.40
2022-10-31T21:56:55.558Z,14.40
2022-10-31T21:59:24.437Z,14.40
2022-10-31T22:01:55.958Z,14.50
2022-10-31T22:04:24.891Z,14.60
2022-10-31T22:06:53.428Z,14.60
2022-10-31T22:09:23.703Z,14.60
2022-10-31T22:11:52.578Z,14.60
2022-10-31T22:14:21.059Z,14.60
2022-10-31T22:16:49.558Z,14.60
2022-10-31T22:19:18.008Z,14.60
2022-10-31T22:21:48.811Z,14.60
2022-10-31T22:24:18.478Z,14.60
2022-10-31T22:26:48.587Z,14.60
2022-10-31T22:29:18.484Z,14.60
2022-10-31T22:31:51.913Z,14.70
2022-10-31T22:34:24.609Z,14.60
2022-10-31T22:37:02.061Z,14.70
2022-10-31T22:39:30.632Z,14.70
2022-10-31T22:42:00.460Z,14.80
2022-10-31T22:44:29.029Z,14.80
2022-10-31T22:46:57.495Z,14.80
2022-10-31T22:49:26.067Z,14.90
2022-10-31T22:51:55.426Z,14.90
2022-10-31T22:54:23.933Z,14.90
2022-10-31T22:56:52.476Z,15.00
2022-10-31T22:59:22.457Z,15.00
2022-10-31T23:01:51.107Z,15.00
2022-10-31T23:04:19.736Z,15.10
2022-10-31T23:06:49.070Z,15.10
2022-10-31T23:09:18.578Z,15.10
2022-10-31T23:11:47.609Z,15.10
2022-10-31T23:14:20.534Z,15.10
2022-10-31T23:16:52.036Z,15.20
2022-10-31T23:19:22.915Z,15.20
2022-10-31T23:21:56.567Z,15.20
2022-10-31T23:24:33.448Z,15.20
2022-10-31T23:27:08.324Z,15.30
2022-10-31T23:29:45.342Z,15.30
2022-10-31T23:32:18.973Z,15.20
2022-10-31T23:34:49.134Z,15.20
2022-10-31T23:37:18.761Z,15.30
2022-10-31T23:39:48.089Z,15.30
2022-10-31T23:42:17.416Z,15.30
2022-10-31T23:44:46.555Z,15.30
2022-10-31T23:47:17.230Z,15.40
2022-10-31T23:49:46.065Z,15.40
2022-10-31T23:52:15.828Z,15.40
2022-10-31T23:54:44.392Z,15.40
2022-10-31T23:57:31.150Z,15.40
2022-10-31T23:59:59.945Z,15.40
